createdAt,value
2022-08-25T00:02:15.597Z,2.70
2022-08-25T00:04:45.080Z,2.53
2022-08-25T00:07:20.680Z,3.08
2022-08-25T00:09:47.717Z,3.42
2022-08-25T00:12:14.535Z,2.65
2022-08-25T00:14:42.990Z,3.28
2022-08-25T00:17:09.908Z,2.42
2022-08-25T00:19:38.081Z,2.83
2022-08-25T00:22:08.042Z,3.30
2022-08-25T00:24:35.062Z,3.17
2022-08-25T00:27:02.835Z,3.05
2022-08-25T00:29:31.480Z,2.55
2022-08-25T00:31:59.257Z,3.00
2022-08-25T00:34:36.203Z,2.45
2022-08-25T00:37:04.570Z,3.22
2022-08-25T00:39:31.534Z,3.15
2022-08-25T00:41:58.874Z,3.10
2022-08-25T00:44:27.975Z,2.92
2022-08-25T00:46:57.293Z,4.47
2022-08-25T00:49:25.320Z,3.38
2022-08-25T00:52:19.055Z,3.13
2022-08-25T00:57:16.239Z,4.03
2022-08-25T00:59:44.513Z,3.67
2022-08-25T01:02:13.697Z,3.17
2022-08-25T01:04:45.872Z,3.40
2022-08-25T01:07:18.737Z,3.28
2022-08-25T01:09:47.173Z,3.30
2022-08-25T01:12:14.483Z,3.40
2022-08-25T01:14:41.778Z,3.60
2022-08-25T01:17:09.610Z,2.75
2022-08-25T01:19:36.510Z,3.15
2022-08-25T01:22:04.111Z,3.45
2022-08-25T01:24:47.684Z,3.10
2022-08-25T01:27:14.805Z,4.05
2022-08-25T01:29:43.374Z,3.38
2022-08-25T01:32:13.308Z,3.97
2022-08-25T01:34:42.899Z,3.20
2022-08-25T01:37:13.453Z,3.50
2022-08-25T01:39:42.221Z,3.88
2022-08-25T01:42:12.051Z,3.92
2022-08-25T01:44:41.622Z,4.10
2022-08-25T01:47:08.843Z,3.42
2022-08-25T01:49:35.781Z,3.88
2022-08-25T01:52:07.868Z,4.03
2022-08-25T01:54:34.790Z,3.67
2022-08-25T01:57:02.080Z,4.05
2022-08-25T01:59:29.106Z,3.50
2022-08-25T02:01:59.730Z,3.67
2022-08-25T02:04:32.301Z,3.63
2022-08-25T02:07:00.709Z,3.30
2022-08-25T02:09:28.087Z,3.05
2022-08-25T02:11:55.226Z,3.60
2022-08-25T02:14:22.279Z,3.67
2022-08-25T02:16:51.255Z,3.60
2022-08-25T02:19:19.637Z,3.55
2022-08-25T02:21:47.228Z,3.75
2022-08-25T02:24:14.742Z,3.30
2022-08-25T02:26:42.039Z,3.97
2022-08-25T02:29:09.236Z,4.47
2022-08-25T02:31:36.870Z,3.80
2022-08-25T02:34:04.434Z,4.03
2022-08-25T02:36:32.326Z,4.20
2022-08-25T02:38:59.657Z,4.22
2022-08-25T02:41:31.457Z,4.20
2022-08-25T02:44:00.047Z,4.30
2022-08-25T02:46:27.663Z,4.13
2022-08-25T02:48:55.356Z,3.85
2022-08-25T02:51:25.434Z,4.47
2022-08-25T02:53:52.654Z,4.13
2022-08-25T02:56:20.126Z,4.05
2022-08-25T02:58:47.550Z,4.60
2022-08-25T03:01:15.448Z,4.20
2022-08-25T03:03:44.420Z,4.72
2022-08-25T03:06:13.321Z,4.13
2022-08-25T03:08:41.804Z,4.38
2022-08-25T03:11:08.911Z,4.82
2022-08-25T03:13:36.433Z,4.13
2022-08-25T03:16:04.389Z,4.78
2022-08-25T03:18:31.511Z,4.68
2022-08-25T03:20:59.084Z,4.85
2022-08-25T03:23:26.094Z,5.15
2022-08-25T03:26:15.157Z,5.30
2022-08-25T03:28:42.200Z,5.20
2022-08-25T03:31:09.867Z,5.05
2022-08-25T03:33:38.509Z,5.50
2022-08-25T03:36:06.492Z,5.05
2022-08-25T03:38:33.496Z,4.72
2022-08-25T03:41:00.402Z,5.60
2022-08-25T03:43:27.267Z,5.45
2022-08-25T03:45:54.203Z,5.47
2022-08-25T03:48:21.117Z,5.35
2022-08-25T03:50:51.802Z,5.43
2022-08-25T03:53:20.136Z,5.40
2022-08-25T03:55:47.514Z,6.13
2022-08-25T03:58:14.597Z,5.25
2022-08-25T04:00:42.288Z,5.57
2022-08-25T04:03:09.413Z,5.28
2022-08-25T04:05:36.420Z,5.78
2022-08-25T04:08:03.824Z,5.72
2022-08-25T04:10:31.607Z,6.22
2022-08-25T04:12:58.882Z,6.18
2022-08-25T04:15:30.126Z,5.30
2022-08-25T04:17:59.096Z,5.80
2022-08-25T04:20:26.629Z,5.60
2022-08-25T04:22:53.509Z,5.65
2022-08-25T04:25:20.446Z,5.68
2022-08-25T04:27:47.250Z,5.47
2022-08-25T04:30:14.933Z,5.43
2022-08-25T04:32:41.721Z,6.53
2022-08-25T04:35:09.913Z,6.40
2022-08-25T04:37:36.800Z,6.32
2022-08-25T04:40:04.986Z,5.93
2022-08-25T04:42:31.967Z,6.38
2022-08-25T04:44:59.896Z,6.72
2022-08-25T04:47:28.157Z,6.57
2022-08-25T04:49:56.177Z,6.60
2022-08-25T04:52:23.012Z,7.43
2022-08-25T04:54:49.888Z,6.72
2022-08-25T04:57:16.727Z,7.40
2022-08-25T04:59:43.588Z,7.75
2022-08-25T05:02:10.398Z,7.82
2022-08-25T05:04:37.543Z,7.18
2022-08-25T05:07:05.151Z,7.57
2022-08-25T05:09:32.991Z,7.03
2022-08-25T05:12:01.419Z,7.32
2022-08-25T05:14:29.128Z,7.57
2022-08-25T05:16:57.196Z,7.95
2022-08-25T05:19:24.747Z,6.82
2022-08-25T05:21:52.370Z,7.57
2022-08-25T05:24:20.025Z,7.28
2022-08-25T05:26:47.008Z,6.82
2022-08-25T05:29:14.522Z,7.32
2022-08-25T05:31:47.031Z,7.65
2022-08-25T05:34:18.447Z,7.15
2022-08-25T05:36:45.419Z,6.75
2022-08-25T05:39:12.561Z,6.53
2022-08-25T05:41:39.527Z,5.72
2022-08-25T05:44:07.009Z,5.53
2022-08-25T05:46:33.953Z,6.28
2022-08-25T05:49:01.107Z,7.22
2022-08-25T05:51:28.166Z,8.07
2022-08-25T05:53:55.049Z,9.25
2022-08-25T05:56:22.086Z,7.95
2022-08-25T05:58:49.406Z,8.40
2022-08-25T06:01:43.556Z,8.02
2022-08-25T06:04:12.695Z,8.15
2022-08-25T06:06:39.729Z,7.85
2022-08-25T06:09:08.822Z,8.35
2022-08-25T06:11:40.074Z,8.05
2022-08-25T06:14:08.301Z,7.78
2022-08-25T06:16:35.316Z,7.40
2022-08-25T06:19:02.291Z,7.90
2022-08-25T06:21:29.427Z,7.70
2022-08-25T06:23:56.642Z,8.45
2022-08-25T06:26:23.866Z,7.72
2022-08-25T06:28:51.628Z,6.82
2022-08-25T06:31:19.155Z,7.25
2022-08-25T06:33:46.664Z,7.40
2022-08-25T06:36:13.854Z,7.50
2022-08-25T06:38:40.689Z,7.78
2022-08-25T06:41:10.598Z,7.18
2022-08-25T06:43:38.086Z,7.32
2022-08-25T06:46:21.547Z,7.60
2022-08-25T06:48:49.018Z,7.70
2022-08-25T06:51:18.278Z,7.47
2022-08-25T06:53:47.762Z,7.40
2022-08-25T06:56:15.971Z,6.70
2022-08-25T06:58:42.920Z,6.63
2022-08-25T07:01:22.971Z,7.75
2022-08-25T07:03:57.394Z,7.55
2022-08-25T07:06:25.147Z,6.50
2022-08-25T07:08:52.004Z,6.90
2022-08-25T07:11:21.449Z,7.05
2022-08-25T07:13:49.119Z,6.97
2022-08-25T07:16:18.252Z,6.75
2022-08-25T07:18:46.226Z,6.28
2022-08-25T07:21:14.026Z,6.68
2022-08-25T07:23:42.059Z,6.28
2022-08-25T07:26:36.897Z,6.32
2022-08-25T07:29:10.406Z,6.30
2022-08-25T07:31:37.666Z,6.45
2022-08-25T07:34:23.525Z,6.97
2022-08-25T07:36:52.456Z,5.90
2022-08-25T07:39:21.866Z,6.00
2022-08-25T07:41:51.905Z,6.50
2022-08-25T07:44:21.097Z,6.40
2022-08-25T07:46:48.671Z,7.28
2022-08-25T07:49:18.333Z,6.75
2022-08-25T07:52:05.022Z,6.90
2022-08-25T07:54:35.586Z,6.75
2022-08-25T07:57:06.549Z,6.65
2022-08-25T07:59:39.602Z,6.68
2022-08-25T08:02:18.390Z,6.30
2022-08-25T08:04:51.925Z,6.60
2022-08-25T08:07:25.852Z,7.18
2022-08-25T08:13:00.600Z,6.78
2022-08-25T08:15:29.640Z,7.03
2022-08-25T08:18:00.438Z,6.70
2022-08-25T08:20:29.018Z,6.53
2022-08-25T08:22:56.127Z,6.60
2022-08-25T08:25:26.443Z,6.22
2022-08-25T08:27:55.488Z,6.40
2022-08-25T08:30:25.977Z,7.50
2022-08-25T08:33:09.164Z,6.57
2022-08-25T08:35:37.206Z,5.90
2022-08-25T08:38:10.331Z,6.07
2022-08-25T08:41:23.172Z,6.53
2022-08-25T08:44:00.727Z,6.22
2022-08-25T08:46:36.145Z,6.28
2022-08-25T08:49:07.270Z,6.07
2022-08-25T08:51:47.844Z,5.07
2022-08-25T08:54:20.547Z,4.97
2022-08-25T08:56:53.879Z,4.55
2022-08-25T08:59:30.509Z,5.72
2022-08-25T09:02:02.018Z,4.97
2022-08-25T09:04:48.467Z,4.40
2022-08-25T09:07:22.088Z,3.75
2022-08-25T09:09:48.989Z,4.90
2022-08-25T09:12:34.777Z,5.25
2022-08-25T09:15:13.945Z,5.10
2022-08-25T09:18:07.157Z,5.47
2022-08-25T09:21:05.861Z,5.13
2022-08-25T09:24:20.161Z,4.63
2022-08-25T09:27:07.679Z,5.13
2022-08-25T09:29:49.276Z,4.90
2022-08-25T09:32:16.462Z,4.45
2022-08-25T09:34:51.478Z,4.43
2022-08-25T09:37:18.412Z,4.65
2022-08-25T09:39:47.250Z,4.20
2022-08-25T09:42:14.297Z,3.58
2022-08-25T09:44:45.360Z,4.25
2022-08-25T09:47:25.466Z,3.83
2022-08-25T09:50:00.863Z,3.92
2022-08-25T09:52:34.820Z,3.60
2022-08-25T09:55:16.141Z,4.10
2022-08-25T09:57:43.017Z,4.40
2022-08-25T10:00:36.856Z,4.75
2022-08-25T10:03:24.875Z,4.68
2022-08-25T10:06:15.003Z,4.65
2022-08-25T10:08:58.045Z,4.22
2022-08-25T10:11:41.856Z,4.78
2022-08-25T10:14:18.013Z,4.03
2022-08-25T10:16:47.283Z,4.10
2022-08-25T10:19:28.666Z,4.25
2022-08-25T10:22:21.810Z,3.90
2022-08-25T10:24:49.431Z,4.40
2022-08-25T10:27:28.382Z,4.57
2022-08-25T10:30:19.127Z,4.47
2022-08-25T10:32:48.896Z,3.55
2022-08-25T10:35:20.820Z,3.88
2022-08-25T10:38:24.150Z,3.97
2022-08-25T10:41:00.603Z,3.78
2022-08-25T10:43:38.536Z,4.55
2022-08-25T10:46:26.628Z,4.30
2022-08-25T10:49:13.597Z,4.40
2022-08-25T10:51:52.700Z,4.38
2022-08-25T10:54:39.767Z,4.50
2022-08-25T10:57:27.793Z,5.45
2022-08-25T11:00:06.966Z,4.60
2022-08-25T11:03:12.517Z,4.55
2022-08-25T11:06:29.746Z,4.88
2022-08-25T11:09:07.780Z,4.63
2022-08-25T11:11:40.881Z,4.40
2022-08-25T11:14:18.579Z,4.68
2022-08-25T11:16:53.203Z,4.20
2022-08-25T11:19:42.369Z,4.35
2022-08-25T11:22:29.646Z,4.80
2022-08-25T11:24:57.299Z,4.28
2022-08-25T11:27:43.407Z,4.63
2022-08-25T11:30:16.062Z,4.72
2022-08-25T11:32:47.635Z,4.55
2022-08-25T11:35:17.857Z,4.53
2022-08-25T11:38:13.477Z,5.00
2022-08-25T11:41:11.323Z,5.22
2022-08-25T11:43:56.983Z,4.93
2022-08-25T11:46:42.689Z,5.78
2022-08-25T11:49:40.704Z,5.25
2022-08-25T11:52:33.218Z,4.70
2022-08-25T11:55:10.999Z,4.70
2022-08-25T11:57:38.581Z,4.85
2022-08-25T12:00:13.835Z,4.90
2022-08-25T12:02:48.842Z,4.50
2022-08-25T12:05:22.171Z,4.40
2022-08-25T12:08:17.852Z,4.78
2022-08-25T12:11:11.889Z,4.97
2022-08-25T12:13:50.875Z,4.93
2022-08-25T12:16:43.611Z,4.40
2022-08-25T12:19:35.585Z,5.32
2022-08-25T12:22:03.454Z,5.45
2022-08-25T12:24:48.238Z,5.03
2022-08-25T12:27:39.135Z,4.60
2022-08-25T12:30:40.137Z,4.63
2022-08-25T12:33:26.271Z,5.63
2022-08-25T12:35:55.992Z,5.28
2022-08-25T12:38:47.245Z,4.45
2022-08-25T12:41:27.280Z,5.05
2022-08-25T12:44:39.648Z,4.32
2022-08-25T12:47:31.913Z,4.57
2022-08-25T12:50:26.337Z,4.70
2022-08-25T12:52:54.555Z,4.38
2022-08-25T12:55:23.433Z,4.30
2022-08-25T12:57:58.745Z,5.20
2022-08-25T13:03:09.980Z,4.65
2022-08-25T13:06:05.797Z,4.70
2022-08-25T13:09:14.094Z,4.60
2022-08-25T13:11:46.891Z,4.93
2022-08-25T13:14:39.480Z,4.68
2022-08-25T13:17:06.968Z,4.63
2022-08-25T13:19:37.395Z,4.88
2022-08-25T13:22:16.156Z,4.93
2022-08-25T13:24:47.350Z,4.35
2022-08-25T13:27:23.018Z,4.72
2022-08-25T13:29:57.013Z,4.55
2022-08-25T13:32:35.536Z,4.60
2022-08-25T13:35:32.471Z,5.07
2022-08-25T13:38:19.510Z,5.10
2022-08-25T13:40:46.585Z,4.63
2022-08-25T13:43:15.157Z,4.75
2022-08-25T13:45:47.438Z,4.78
2022-08-25T13:48:30.944Z,4.75
2022-08-25T13:51:18.468Z,4.45
2022-08-25T13:54:08.701Z,4.80
2022-08-25T13:56:41.043Z,5.03
2022-08-25T13:59:20.428Z,4.90
2022-08-25T14:01:49.922Z,5.13
2022-08-25T14:04:26.096Z,5.35
2022-08-25T14:07:07.354Z,4.80
2022-08-25T14:09:41.205Z,5.05
2022-08-25T14:12:08.192Z,4.60
2022-08-25T14:14:36.463Z,4.80
2022-08-25T14:17:28.628Z,4.90
2022-08-25T14:20:00.610Z,4.95
2022-08-25T14:22:27.684Z,4.55
2022-08-25T14:24:54.988Z,5.30
2022-08-25T14:27:22.242Z,4.63
2022-08-25T14:29:52.682Z,4.63
2022-08-25T14:32:19.900Z,5.15
2022-08-25T14:34:47.201Z,5.07
2022-08-25T14:37:17.387Z,4.35
2022-08-25T14:39:45.055Z,5.05
2022-08-25T14:42:13.726Z,4.32
2022-08-25T14:44:40.613Z,4.50
2022-08-25T14:47:08.229Z,4.60
2022-08-25T14:49:40.549Z,4.10
2022-08-25T14:52:10.708Z,4.68
2022-08-25T14:54:39.803Z,4.60
2022-08-25T14:57:08.413Z,4.32
2022-08-25T14:59:35.859Z,4.47
2022-08-25T15:02:13.247Z,4.70
2022-08-25T15:04:40.446Z,3.85
2022-08-25T15:07:29.410Z,4.20
2022-08-25T15:09:56.451Z,4.68
2022-08-25T15:12:46.123Z,4.40
2022-08-25T15:15:10.584Z,4.65
2022-08-25T15:17:42.049Z,4.63
2022-08-25T15:20:12.397Z,4.25
2022-08-25T15:22:39.766Z,4.60
2022-08-25T15:25:09.059Z,4.18
2022-08-25T15:27:36.343Z,4.95
2022-08-25T15:30:04.367Z,3.88
2022-08-25T15:32:31.404Z,4.20
2022-08-25T15:34:58.282Z,4.13
2022-08-25T15:37:25.156Z,4.40
2022-08-25T15:39:52.493Z,4.43
2022-08-25T15:42:20.113Z,4.85
2022-08-25T15:44:53.221Z,4.43
2022-08-25T15:47:21.304Z,4.53
2022-08-25T15:49:48.378Z,4.25
2022-08-25T15:52:15.568Z,4.25
2022-08-25T15:54:42.401Z,3.95
2022-08-25T15:57:16.862Z,4.57
2022-08-25T15:59:52.359Z,4.57
2022-08-25T16:02:20.572Z,4.07
2022-08-25T16:04:47.731Z,4.57
2022-08-25T16:07:14.910Z,4.10
2022-08-25T16:09:41.884Z,4.50
2022-08-25T16:12:09.054Z,3.90
2022-08-25T16:14:38.333Z,4.60
2022-08-25T16:17:06.522Z,4.47
2022-08-25T16:19:33.797Z,4.35
2022-08-25T16:22:03.460Z,4.05
2022-08-25T16:24:38.422Z,4.53
2022-08-25T16:27:11.624Z,4.28
2022-08-25T16:29:40.699Z,4.60
2022-08-25T16:32:08.692Z,4.53
2022-08-25T16:34:36.181Z,4.80
2022-08-25T16:37:03.610Z,5.10
2022-08-25T16:39:31.985Z,4.40
2022-08-25T16:41:59.120Z,4.53
2022-08-25T16:44:26.706Z,4.60
2022-08-25T16:46:57.627Z,4.85
2022-08-25T16:49:25.346Z,4.88
2022-08-25T16:51:57.131Z,4.20
2022-08-25T16:54:44.376Z,4.68
2022-08-25T16:57:11.724Z,4.40
2022-08-25T16:59:38.639Z,4.65
2022-08-25T17:02:06.608Z,4.60
2022-08-25T17:04:33.574Z,5.22
2022-08-25T17:07:01.977Z,5.05
2022-08-25T17:09:29.646Z,4.85
2022-08-25T17:11:57.287Z,4.45
2022-08-25T17:14:24.741Z,5.15
2022-08-25T17:16:54.809Z,5.05
2022-08-25T17:19:23.796Z,4.97
2022-08-25T17:21:51.002Z,4.43
2022-08-25T17:24:18.595Z,4.95
2022-08-25T17:26:47.331Z,5.00
2022-08-25T17:29:20.075Z,5.07
2022-08-25T17:31:48.564Z,4.53
2022-08-25T17:34:16.883Z,4.53
2022-08-25T17:36:48.427Z,4.47
2022-08-25T17:39:18.204Z,4.82
2022-08-25T17:41:45.392Z,5.50
2022-08-25T17:44:12.991Z,5.53
2022-08-25T17:46:47.013Z,6.63
2022-08-25T17:49:15.496Z,6.45
2022-08-25T17:51:42.775Z,5.35
2022-08-25T17:54:11.037Z,6.95
2022-08-25T17:56:37.996Z,7.03
2022-08-25T17:59:04.861Z,5.15
2022-08-25T18:01:34.818Z,4.80
2022-08-25T18:04:01.758Z,5.50
2022-08-25T18:06:31.056Z,5.15
2022-08-25T18:09:00.224Z,4.97
2022-08-25T18:11:28.572Z,5.70
2022-08-25T18:13:55.905Z,5.47
2022-08-25T18:16:23.817Z,5.28
2022-08-25T18:18:52.820Z,6.32
2022-08-25T18:21:20.933Z,10.75
2022-08-25T18:23:49.542Z,7.72
2022-08-25T18:26:17.137Z,6.68
2022-08-25T18:28:48.894Z,5.70
2022-08-25T18:31:15.884Z,5.28
2022-08-25T18:33:47.178Z,5.50
2022-08-25T18:36:17.953Z,5.35
2022-08-25T18:39:04.143Z,4.93
2022-08-25T18:41:36.587Z,4.97
2022-08-25T18:44:04.320Z,5.20
2022-08-25T18:46:31.258Z,5.90
2022-08-25T18:48:58.181Z,5.70
2022-08-25T18:51:25.118Z,4.93
2022-08-25T18:53:54.732Z,5.30
2022-08-25T18:56:26.750Z,5.72
2022-08-25T18:58:53.587Z,5.22
2022-08-25T19:01:20.805Z,5.22
2022-08-25T19:03:48.702Z,5.30
2022-08-25T19:06:16.162Z,5.05
2022-08-25T19:08:43.666Z,5.72
2022-08-25T19:11:10.807Z,5.75
2022-08-25T19:13:38.318Z,5.90
2022-08-25T19:16:11.364Z,5.40
2022-08-25T19:18:39.119Z,5.95
2022-08-25T19:21:08.311Z,6.18
2022-08-25T19:23:38.104Z,5.47
2022-08-25T19:26:08.442Z,5.88
2022-08-25T19:28:45.713Z,5.57
2022-08-25T19:31:16.145Z,6.00
2022-08-25T19:33:46.098Z,6.18
2022-08-25T19:36:13.934Z,6.57
2022-08-25T19:38:41.058Z,5.93
2022-08-25T19:41:10.651Z,6.00
2022-08-25T19:43:55.180Z,5.45
2022-08-25T19:46:23.257Z,6.45
2022-08-25T19:48:50.446Z,5.93
2022-08-25T19:51:19.195Z,5.97
2022-08-25T19:53:46.753Z,6.18
2022-08-25T19:56:20.595Z,5.75
2022-08-25T19:58:48.053Z,6.22
2022-08-25T20:01:16.527Z,6.45
2022-08-25T20:03:45.408Z,6.45
2022-08-25T20:06:15.868Z,6.03
2022-08-25T20:08:43.598Z,6.47
2022-08-25T20:11:10.813Z,6.05
2022-08-25T20:13:37.740Z,6.63
2022-08-25T20:16:05.563Z,6.53
2022-08-25T20:18:32.629Z,6.97
2022-08-25T20:20:59.644Z,7.28
2022-08-25T20:23:44.749Z,7.30
2022-08-25T20:26:11.633Z,6.55
2022-08-25T20:28:42.040Z,7.00
2022-08-25T20:31:09.391Z,6.38
2022-08-25T20:33:36.346Z,6.43
2022-08-25T20:36:04.888Z,6.88
2022-08-25T20:38:33.001Z,6.68
2022-08-25T20:41:01.327Z,7.93
2022-08-25T20:43:29.913Z,6.88
2022-08-25T20:46:04.630Z,7.25
2022-08-25T20:48:31.780Z,6.50
2022-08-25T20:50:58.799Z,6.82
2022-08-25T20:53:26.260Z,7.00
2022-08-25T20:55:53.210Z,7.13
2022-08-25T20:58:20.690Z,6.97
2022-08-25T21:00:47.610Z,8.00
2022-08-25T21:03:16.596Z,7.57
2022-08-25T21:05:46.581Z,7.68
2022-08-25T21:08:13.496Z,7.78
2022-08-25T21:10:40.891Z,7.32
2022-08-25T21:13:07.786Z,8.20
2022-08-25T21:15:34.658Z,7.25
2022-08-25T21:18:02.245Z,7.18
2022-08-25T21:20:29.576Z,6.97
2022-08-25T21:22:56.770Z,6.70
2022-08-25T21:25:23.868Z,7.32
2022-08-25T21:27:50.817Z,8.00
2022-08-25T21:30:17.813Z,8.43
2022-08-25T21:32:53.761Z,7.88
2022-08-25T21:35:22.495Z,7.40
2022-08-25T21:37:53.499Z,7.50
2022-08-25T21:40:21.553Z,7.72
2022-08-25T21:42:49.136Z,7.47
2022-08-25T21:45:16.711Z,7.65
2022-08-25T21:47:47.961Z,7.32
2022-08-25T21:50:14.807Z,8.65
2022-08-25T21:52:42.446Z,7.65
2022-08-25T21:55:16.129Z,7.72
2022-08-25T21:57:43.754Z,7.95
2022-08-25T22:00:13.148Z,8.93
2022-08-25T22:02:40.027Z,8.10
2022-08-25T22:05:11.548Z,8.57
2022-08-25T22:07:43.843Z,8.38
2022-08-25T22:10:15.879Z,8.68
2022-08-25T22:12:45.113Z,8.85
2022-08-25T22:15:13.721Z,9.00
2022-08-25T22:17:41.160Z,8.48
2022-08-25T22:20:09.429Z,9.32
2022-08-25T22:22:36.307Z,9.25
2022-08-25T22:25:04.204Z,8.45
2022-08-25T22:27:32.996Z,8.32
2022-08-25T22:30:01.081Z,8.90
2022-08-25T22:32:28.095Z,9.10
2022-08-25T22:34:54.909Z,8.82
2022-08-25T22:37:22.623Z,9.57
2022-08-25T22:39:49.667Z,9.32
2022-08-25T22:42:17.252Z,8.95
2022-08-25T22:44:44.602Z,9.35
2022-08-25T22:47:12.464Z,8.60
2022-08-25T22:49:39.836Z,9.43
2022-08-25T22:52:09.303Z,9.50
2022-08-25T22:54:38.472Z,8.82
2022-08-25T22:57:06.907Z,9.35
2022-08-25T22:59:34.438Z,9.35
2022-08-25T23:02:01.439Z,10.00
2022-08-25T23:04:28.339Z,9.30
2022-08-25T23:06:55.627Z,9.23
2022-08-25T23:09:23.714Z,10.15
2022-08-25T23:11:52.059Z,10.00
2022-08-25T23:14:19.110Z,9.50
2022-08-25T23:16:46.006Z,9.80
2022-08-25T23:19:14.351Z,10.18
2022-08-25T23:22:01.989Z,9.75
2022-08-25T23:24:30.641Z,10.32
2022-08-25T23:26:58.905Z,9.93
2022-08-25T23:29:25.773Z,9.35
2022-08-25T23:31:53.645Z,10.10
2022-08-25T23:34:23.403Z,9.27
2022-08-25T23:36:50.653Z,10.27
2022-08-25T23:39:17.730Z,10.82
2022-08-25T23:41:44.676Z,9.88
2022-08-25T23:44:17.227Z,9.90
2022-08-25T23:49:11.619Z,9.88
2022-08-25T23:51:38.971Z,9.95
2022-08-25T23:54:09.619Z,10.57
2022-08-25T23:56:44.506Z,10.32
2022-08-25T23:59:13.115Z,10.70
